Time;durP1;ratioP1;P1;durP2;ratioP2;P2;SDS_P1;SDS_P2;PMS_P1;PMS_P2;Temp;Humidity;BMP_temperature;BMP_pressure;BME280_temperature;BME280_humidity;BME280_pressure;Samples;Min_cycle;Max_cycle;Signal;HPM_P1;HPM_P2
2021/05/22 00:02:33;;;;;;;7.32;3.33;;;17.90;61.00;;;;;;10522502;28;20020;-59
2021/05/22 00:07:33;;;;;;;7.30;3.95;;;17.90;61.10;;;;;;10541042;28;20075;-58
2021/05/22 00:12:34;;;;;;;7.78;3.72;;;17.90;60.90;;;;;;10549599;28;20455;-59
2021/05/22 00:17:35;;;;;;;5.78;3.05;;;17.90;61.00;;;;;;10569257;28;20464;-59
2021/05/22 00:22:36;;;;;;;9.65;3.13;;;17.90;61.30;;;;;;10550308;28;20028;-59
2021/05/22 00:27:37;;;;;;;5.78;2.78;;;17.90;61.20;;;;;;10526573;28;20042;-59
2021/05/22 00:32:39;;;;;;;6.50;2.80;;;17.90;61.10;;;;;;10561431;28;20040;-59
2021/05/22 00:37:40;;;;;;;4.47;2.33;;;17.90;61.20;;;;;;10543780;28;20459;-58
2021/05/22 00:42:43;;;;;;;5.40;2.65;;;17.90;61.30;;;;;;10539935;28;20032;-59
2021/05/22 00:47:54;;;;;;;5.18;2.85;;;17.90;61.10;;;;;;10539091;28;20145;-59
2021/05/22 00:52:55;;;;;;;6.38;2.45;;;17.90;61.10;;;;;;10550750;28;20475;-59
2021/05/22 00:57:57;;;;;;;6.63;2.50;;;17.90;60.90;;;;;;10556300;28;20034;-58
2021/05/22 01:02:58;;;;;;;8.02;2.70;;;17.90;60.70;;;;;;10552655;28;20464;-58
2021/05/22 01:07:58;;;;;;;5.88;2.42;;;17.80;60.60;;;;;;10569598;28;20031;-59
2021/05/22 01:13:00;;;;;;;4.47;2.92;;;17.80;60.40;;;;;;10539415;28;20039;-59
2021/05/22 01:18:01;;;;;;;5.07;2.70;;;17.80;60.50;;;;;;10541482;28;20504;-59
2021/05/22 01:23:08;;;;;;;8.27;2.97;;;17.80;60.40;;;;;;10541622;28;20031;-59
2021/05/22 01:28:12;;;;;;;5.88;2.65;;;17.90;60.50;;;;;;10547362;28;20111;-58
2021/05/22 01:33:12;;;;;;;6.55;2.53;;;17.90;60.50;;;;;;10538059;28;20430;-58
2021/05/22 01:38:13;;;;;;;6.32;2.40;;;17.90;60.40;;;;;;10564134;28;20042;-59
2021/05/22 01:43:14;;;;;;;4.68;1.98;;;17.90;60.40;;;;;;10559168;28;20059;-58
2021/05/22 01:48:18;;;;;;;7.00;2.33;;;17.90;60.40;;;;;;10566698;28;20090;-57
2021/05/22 01:53:20;;;;;;;3.95;2.08;;;17.90;60.30;;;;;;10516772;28;20478;-59
2021/05/22 01:58:22;;;;;;;5.50;2.22;;;17.90;60.40;;;;;;10551780;28;20032;-58
2021/05/22 02:03:36;;;;;;;7.75;2.30;;;17.90;60.30;;;;;;10566549;28;20101;-59
2021/05/22 02:08:41;;;;;;;5.85;1.85;;;17.90;60.40;;;;;;10550333;28;20036;-57
2021/05/22 02:13:44;;;;;;;5.28;1.88;;;17.80;60.30;;;;;;10558079;28;20044;-58
2021/05/22 02:18:45;;;;;;;3.25;1.88;;;17.80;60.30;;;;;;10557098;28;20047;-58
2021/05/22 02:23:47;;;;;;;4.30;1.70;;;17.80;60.20;;;;;;10568119;28;20042;-59
2021/05/22 02:28:49;;;;;;;4.65;2.22;;;17.80;60.30;;;;;;10539787;28;20047;-59
2021/05/22 02:33:51;;;;;;;4.45;1.73;;;17.80;60.10;;;;;;10534090;28;20057;-59
2021/05/22 02:38:53;;;;;;;5.75;2.13;;;17.80;60.00;;;;;;10526137;28;20039;-59
2021/05/22 02:43:58;;;;;;;4.10;1.95;;;17.80;59.90;;;;;;10559350;28;20070;-56
2021/05/22 02:49:00;;;;;;;5.97;2.15;;;17.90;59.90;;;;;;10540217;28;20048;-59
2021/05/22 02:54:04;;;;;;;5.07;1.80;;;17.80;59.90;;;;;;10531429;28;20111;-59
2021/05/22 02:59:07;;;;;;;4.70;1.85;;;17.80;59.90;;;;;;10549084;28;20047;-59
2021/05/22 03:04:07;;;;;;;4.13;1.55;;;17.80;59.90;;;;;;10544917;28;20036;-58
2021/05/22 03:09:08;;;;;;;3.97;1.88;;;17.80;60.00;;;;;;10582125;28;20053;-58
2021/05/22 03:14:09;;;;;;;3.53;1.45;;;17.80;60.20;;;;;;10556384;28;20064;-59
2021/05/22 03:19:13;;;;;;;3.08;1.35;;;17.80;60.10;;;;;;10559291;28;20112;-59
2021/05/22 03:24:14;;;;;;;3.03;1.15;;;17.80;60.00;;;;;;10550192;28;20036;-59
2021/05/22 03:29:14;;;;;;;4.80;1.48;;;17.80;60.10;;;;;;10541806;28;20035;-59
2021/05/22 03:34:15;;;;;;;2.90;1.60;;;17.80;60.20;;;;;;10506808;28;20123;-59
2021/05/22 03:39:17;;;;;;;4.75;1.50;;;17.80;59.90;;;;;;10533460;28;20488;-59
2021/05/22 03:44:17;;;;;;;3.40;1.42;;;17.80;59.80;;;;;;10543157;28;20067;-58
2021/05/22 03:49:18;;;;;;;8.45;1.77;;;17.80;59.60;;;;;;10555165;28;20495;-58
2021/05/22 03:54:19;;;;;;;3.40;1.20;;;17.80;59.50;;;;;;10544124;28;20036;-56
2021/05/22 03:59:19;;;;;;;3.33;1.00;;;17.80;59.50;;;;;;10579235;28;20554;-55
2021/05/22 04:04:20;;;;;;;3.35;1.10;;;17.80;59.50;;;;;;10547696;28;20122;-55
2021/05/22 04:09:21;;;;;;;3.15;1.17;;;17.80;59.60;;;;;;10554050;28;20392;-56
2021/05/22 04:14:22;;;;;;;2.70;1.20;;;17.80;59.60;;;;;;10555459;28;20066;-55
2021/05/22 04:19:23;;;;;;;2.67;1.23;;;17.80;59.60;;;;;;10557902;28;20492;-64
2021/05/22 04:24:24;;;;;;;4.38;1.38;;;17.80;59.60;;;;;;10575677;28;20035;-56
2021/05/22 04:29:25;;;;;;;3.63;1.50;;;17.80;59.60;;;;;;10550774;28;20054;-56
2021/05/22 04:34:26;;;;;;;3.38;1.30;;;17.80;59.60;;;;;;10559793;28;20028;-56
2021/05/22 04:39:28;;;;;;;3.63;1.40;;;17.80;59.70;;;;;;10547111;28;20024;-56
2021/05/22 04:44:29;;;;;;;3.40;1.33;;;17.80;59.70;;;;;;10563543;28;20028;-54
2021/05/22 04:49:31;;;;;;;2.22;1.13;;;17.80;59.70;;;;;;10538423;28;20086;-56
2021/05/22 04:54:32;;;;;;;1.80;1.00;;;17.80;59.60;;;;;;10560180;28;20497;-55
2021/05/22 04:59:33;;;;;;;3.13;1.20;;;17.80;59.70;;;;;;10546155;28;20032;-56
2021/05/22 05:04:33;;;;;;;6.78;1.33;;;17.80;59.70;;;;;;10551342;28;20039;-56
2021/05/22 05:09:36;;;;;;;2.88;1.13;;;17.80;59.70;;;;;;10562871;28;20056;-55
2021/05/22 05:14:36;;;;;;;9.20;1.30;;;17.80;59.80;;;;;;10553199;28;20059;-56
2021/05/22 05:19:37;;;;;;;3.10;0.98;;;17.80;60.50;;;;;;10562758;28;20055;-57
2021/05/22 05:24:38;;;;;;;3.85;1.52;;;17.80;60.70;;;;;;10537946;28;20043;-58
2021/05/22 05:29:40;;;;;;;5.00;0.98;;;17.80;60.80;;;;;;10538128;28;20032;-59
2021/05/22 05:34:42;;;;;;;5.63;1.30;;;17.80;61.40;;;;;;10537680;28;20105;-58
2021/05/22 05:39:43;;;;;;;8.65;1.10;;;17.90;61.80;;;;;;10534650;28;20024;-59
2021/05/22 05:44:43;;;;;;;5.40;1.50;;;17.90;62.10;;;;;;10543657;28;20036;-59
2021/05/22 05:49:44;;;;;;;12.95;1.95;;;17.90;61.90;;;;;;10545751;28;20086;-59
2021/05/22 05:54:45;;;;;;;10.85;1.48;;;17.90;61.80;;;;;;10558939;28;20059;-58
2021/05/22 05:59:46;;;;;;;5.78;1.75;;;17.90;61.60;;;;;;10552551;28;20482;-58
2021/05/22 06:04:47;;;;;;;5.78;1.88;;;17.80;61.50;;;;;;10545365;28;20384;-58
2021/05/22 06:09:48;;;;;;;6.20;1.05;;;17.80;61.40;;;;;;10567316;28;20059;-59
2021/05/22 06:14:52;;;;;;;14.30;2.50;;;17.80;61.40;;;;;;10575418;28;20047;-58
2021/05/22 06:19:53;;;;;;;4.18;1.40;;;17.80;61.50;;;;;;10565016;28;20462;-59
2021/05/22 06:24:54;;;;;;;6.25;1.55;;;17.80;61.70;;;;;;10544201;28;20115;-58
2021/05/22 06:29:54;;;;;;;8.60;2.13;;;17.80;61.90;;;;;;10564051;28;20062;-58
2021/05/22 06:34:55;;;;;;;8.75;1.60;;;17.80;62.00;;;;;;10527984;28;20384;-58
2021/05/22 06:39:56;;;;;;;9.63;1.95;;;17.80;62.10;;;;;;10548798;28;20373;-59
2021/05/22 06:45:02;;;;;;;12.75;2.08;;;17.90;62.20;;;;;;10557186;28;20067;-57
2021/05/22 06:50:04;;;;;;;15.18;2.10;;;17.90;62.60;;;;;;10546566;28;20032;-56
2021/05/22 06:55:06;;;;;;;11.05;1.55;;;17.90;63.00;;;;;;10558486;28;20028;-57
2021/05/22 07:00:08;;;;;;;10.60;2.50;;;17.90;62.80;;;;;;10563702;28;20028;-57
2021/05/22 07:05:10;;;;;;;15.00;3.13;;;17.90;62.80;;;;;;10570552;28;20102;-61
2021/05/22 07:10:12;;;;;;;33.65;3.97;;;17.90;63.30;;;;;;10565861;28;20050;-58
2021/05/22 07:15:15;;;;;;;19.17;3.17;;;17.90;63.30;;;;;;10564407;28;20063;-57
2021/05/22 07:20:16;;;;;;;21.13;3.45;;;17.90;63.30;;;;;;10576251;28;20050;-57
2021/05/22 07:25:18;;;;;;;24.92;3.60;;;17.90;63.30;;;;;;10574690;28;20038;-58
2021/05/22 07:30:20;;;;;;;13.45;3.78;;;17.90;63.10;;;;;;10535412;28;20043;-59
2021/05/22 07:35:21;;;;;;;36.30;4.35;;;17.80;63.20;;;;;;10555785;28;20036;-58
2021/05/22 07:40:21;;;;;;;24.33;3.50;;;17.80;63.40;;;;;;10550706;28;20470;-55
2021/05/22 07:45:22;;;;;;;18.45;3.13;;;17.80;63.70;;;;;;10545393;28;20054;-58
2021/05/22 07:50:23;;;;;;;26.70;4.88;;;17.80;63.60;;;;;;10545538;28;20040;-59
2021/05/22 07:55:24;;;;;;;21.08;4.47;;;17.90;64.10;;;;;;10555541;28;20371;-60
2021/05/22 08:00:24;;;;;;;42.22;4.78;;;17.80;63.90;;;;;;10570350;28;20042;-59
2021/05/22 08:05:25;;;;;;;22.92;4.22;;;17.80;64.20;;;;;;10527865;28;20043;-60
2021/05/22 08:10:26;;;;;;;20.80;3.30;;;17.80;64.10;;;;;;10539426;28;20044;-62
2021/05/22 08:15:27;;;;;;;14.68;4.32;;;17.80;63.70;;;;;;10553389;28;20376;-60
2021/05/22 08:20:28;;;;;;;15.02;4.70;;;17.80;63.60;;;;;;10562698;28;20535;-60
2021/05/22 08:25:29;;;;;;;19.80;4.03;;;17.70;63.40;;;;;;10552020;28;20081;-61
2021/05/22 08:30:30;;;;;;;14.98;3.25;;;17.70;63.40;;;;;;10551675;28;20161;-61
2021/05/22 08:35:31;;;;;;;10.93;2.63;;;17.70;63.50;;;;;;10549201;28;20036;-61
2021/05/22 08:40:32;;;;;;;19.17;3.17;;;17.70;63.50;;;;;;10525578;28;20368;-61
2021/05/22 08:45:32;;;;;;;10.45;2.65;;;17.70;63.50;;;;;;10538838;28;20058;-60
2021/05/22 08:50:36;;;;;;;10.95;2.30;;;17.70;63.40;;;;;;10539472;28;20028;-61
2021/05/22 08:55:37;;;;;;;11.85;2.58;;;17.70;63.40;;;;;;10538681;28;20067;-61
2021/05/22 09:00:39;;;;;;;13.30;3.42;;;17.70;63.40;;;;;;10549417;28;20054;-61
2021/05/22 09:05:45;;;;;;;7.70;1.98;;;17.60;63.40;;;;;;10542664;28;20063;-61
2021/05/22 09:10:51;;;;;;;8.65;1.90;;;17.70;63.40;;;;;;10521711;28;20134;-60
2021/05/22 09:16:11;;;;;;;5.78;1.85;;;17.60;63.40;;;;;;10538433;28;20059;-60
2021/05/22 09:21:13;;;;;;;;;;;17.60;63.40;;;;;;10560294;28;20028;-61
2021/05/22 09:26:16;;;;;;;8.07;2.72;;;17.60;63.40;;;;;;10546900;28;19918;-61
2021/05/22 09:31:20;;;;;;;10.18;2.38;;;17.60;63.30;;;;;;10546613;28;20056;-60
2021/05/22 09:36:20;;;;;;;9.68;2.20;;;17.60;63.40;;;;;;10545648;28;20119;-61
2021/05/22 09:41:27;;;;;;;14.32;3.65;;;17.60;63.30;;;;;;10546318;28;20115;-61
2021/05/22 09:46:28;;;;;;;7.88;2.00;;;17.60;63.40;;;;;;10571567;28;20499;-61
2021/05/22 09:51:28;;;;;;;9.45;2.10;;;17.50;63.30;;;;;;10546133;28;20043;-61
2021/05/22 09:56:29;;;;;;;14.80;2.25;;;17.50;63.30;;;;;;10527053;28;20108;-61
2021/05/22 10:01:42;;;;;;;6.13;1.83;;;17.50;63.30;;;;;;10545641;28;20034;-60
2021/05/22 10:06:43;;;;;;;4.10;1.88;;;17.50;63.40;;;;;;10535469;28;20036;-61
2021/05/22 10:12:15;;;;;;;5.00;1.48;;;17.50;63.40;;;;;;10553374;28;20057;-61
2021/05/22 10:17:16;;;;;;;6.57;2.17;;;17.50;63.40;;;;;;10540127;28;20075;-61
2021/05/22 10:22:19;;;;;;;5.50;2.55;;;17.50;63.40;;;;;;10552359;28;20038;-61
2021/05/22 10:27:21;;;;;;;7.15;2.20;;;17.50;63.40;;;;;;10526537;28;20028;-61
2021/05/22 10:32:26;;;;;;;5.20;1.70;;;17.50;63.40;;;;;;10543474;28;20064;-61
2021/05/22 10:37:44;;;;;;;5.63;1.60;;;17.50;63.40;;;;;;10543993;28;20043;-61
2021/05/22 10:42:53;;;;;;;6.72;2.13;;;17.50;63.50;;;;;;10561283;28;20066;-61
2021/05/22 10:47:55;;;;;;;6.20;2.00;;;17.50;63.50;;;;;;10543448;28;20101;-61
2021/05/22 10:53:33;;;;;;;6.90;1.60;;;17.50;63.60;;;;;;10543780;28;20410;-60
2021/05/22 10:58:39;;;;;;;7.25;1.65;;;17.50;63.70;;;;;;10557034;28;20020;-61
2021/05/22 11:03:40;;;;;;;4.95;1.85;;;17.40;63.70;;;;;;10543133;28;20119;-60
2021/05/22 11:08:44;;;;;;;6.60;1.13;;;17.40;63.70;;;;;;10542609;28;20081;-61
2021/05/22 11:13:45;;;;;;;5.15;1.73;;;17.40;63.70;;;;;;10556286;28;20131;-61
2021/05/22 11:18:46;;;;;;;5.45;1.50;;;17.50;63.80;;;;;;10556552;28;20110;-62
2021/05/22 11:24:03;;;;;;;4.20;1.70;;;17.40;63.80;;;;;;10543395;28;20062;-62
2021/05/22 11:29:04;;;;;;;6.78;2.42;;;17.50;63.80;;;;;;10572666;28;20036;-61
2021/05/22 11:34:20;;;;;;;6.45;2.28;;;17.40;63.80;;;;;;10528329;28;20059;-61
2021/05/22 11:39:40;;;;;;;5.38;1.60;;;17.40;63.80;;;;;;10541552;28;20036;-61
2021/05/22 11:44:55;;;;;;;4.65;1.75;;;17.40;63.80;;;;;;10541166;28;20464;-61
2021/05/22 11:49:57;;;;;;;3.58;1.48;;;17.40;63.80;;;;;;10541192;28;20081;-60
2021/05/22 11:55:01;;;;;;;13.40;1.48;;;17.40;63.90;;;;;;10553751;28;20031;-61
2021/05/22 12:00:02;;;;;;;3.80;1.45;;;17.40;63.90;;;;;;10533724;28;20048;-61
2021/05/22 12:05:05;;;;;;;3.78;1.52;;;17.40;63.90;;;;;;10540596;28;20488;-61
2021/05/22 12:10:10;;;;;;;4.55;1.52;;;17.40;63.90;;;;;;10522439;28;20024;-61
2021/05/22 12:15:25;;;;;;;2.92;1.23;;;17.40;63.90;;;;;;10553435;28;20471;-61
2021/05/22 12:20:27;;;;;;;3.20;1.67;;;17.40;63.90;;;;;;10555454;28;20085;-61
2021/05/22 12:25:30;;;;;;;4.43;1.80;;;17.40;64.00;;;;;;10539479;28;20495;-60
2021/05/22 12:30:31;;;;;;;4.80;1.67;;;17.40;64.00;;;;;;10546192;28;20032;-60
2021/05/22 12:35:31;;;;;;;5.40;1.73;;;17.40;64.10;;;;;;10551820;28;20070;-60
2021/05/22 12:40:50;;;;;;;4.25;1.40;;;17.40;64.10;;;;;;10543250;28;20094;-61
2021/05/22 12:45:51;;;;;;;3.17;1.60;;;17.40;64.10;;;;;;10559369;28;20056;-61
2021/05/22 12:50:52;;;;;;;5.60;1.70;;;17.40;64.20;;;;;;10551275;28;20031;-61
2021/05/22 12:56:03;;;;;;;2.65;1.55;;;17.40;64.10;;;;;;10569482;28;20032;-60
2021/05/22 13:01:20;;;;;;;2.58;1.27;;;17.40;64.20;;;;;;10533090;28;20108;-60
2021/05/22 13:06:30;;;;;;;4.07;1.52;;;17.40;64.10;;;;;;10537319;28;20119;-60
2021/05/22 13:11:31;;;;;;;2.72;1.17;;;17.40;64.10;;;;;;10544579;28;20023;-60
2021/05/22 13:16:32;;;;;;;2.60;1.20;;;17.40;64.10;;;;;;10545784;28;20059;-61
2021/05/22 13:21:36;;;;;;;3.75;1.55;;;17.40;64.10;;;;;;10554068;28;20056;-60
2021/05/22 13:26:37;;;;;;;4.40;1.55;;;17.40;66.10;;;;;;10538184;28;20040;-60
2021/05/22 13:31:45;;;;;;;2.80;1.52;;;17.40;68.40;;;;;;10538652;28;20075;-60
2021/05/22 13:36:47;;;;;;;3.63;1.35;;;17.40;69.30;;;;;;10571403;28;20070;-60
2021/05/22 13:41:47;;;;;;;3.33;1.88;;;17.40;69.10;;;;;;10520607;28;20073;-61
2021/05/22 13:46:49;;;;;;;2.58;1.33;;;17.50;68.70;;;;;;10538157;28;20112;-60
2021/05/22 13:51:50;;;;;;;3.63;2.08;;;17.50;68.70;;;;;;10538136;28;20055;-60
2021/05/22 13:56:50;;;;;;;3.00;1.45;;;17.50;68.50;;;;;;10502622;28;20028;-61
2021/05/22 14:01:51;;;;;;;1.58;1.23;;;17.50;68.30;;;;;;10537878;28;20548;-60
2021/05/22 14:06:53;;;;;;;3.90;1.13;;;17.50;68.40;;;;;;10542100;28;20119;-60
2021/05/22 14:11:54;;;;;;;4.15;2.03;;;17.50;68.40;;;;;;10545668;28;20506;-61
2021/05/22 14:16:54;;;;;;;4.38;1.80;;;17.50;67.90;;;;;;10548898;28;20052;-61
2021/05/22 14:21:55;;;;;;;5.30;1.83;;;17.50;67.70;;;;;;10560413;28;20064;-60
2021/05/22 14:26:56;;;;;;;2.53;1.45;;;17.40;67.60;;;;;;10543381;28;20032;-60
2021/05/22 14:31:57;;;;;;;3.35;1.23;;;17.40;67.50;;;;;;10544391;28;20055;-60
2021/05/22 14:36:59;;;;;;;3.72;1.45;;;17.50;67.40;;;;;;10525810;28;20024;-61
2021/05/22 14:42:02;;;;;;;2.88;1.85;;;17.40;67.30;;;;;;10544222;28;20426;-61
2021/05/22 14:47:03;;;;;;;1.80;1.25;;;17.40;67.20;;;;;;10570551;28;20408;-60
2021/05/22 14:52:04;;;;;;;2.83;1.30;;;17.40;67.20;;;;;;10562237;28;20070;-60
2021/05/22 14:57:05;;;;;;;4.10;1.70;;;17.40;67.10;;;;;;10551663;28;20122;-61
2021/05/22 15:02:07;;;;;;;3.25;1.73;;;17.40;67.00;;;;;;10543187;28;20031;-60
2021/05/22 15:07:08;;;;;;;1.98;1.17;;;17.40;67.00;;;;;;10565883;28;20082;-60
2021/05/22 15:12:08;;;;;;;3.38;1.60;;;17.40;67.00;;;;;;10554301;28;20109;-62
2021/05/22 15:17:09;;;;;;;3.33;1.52;;;17.40;67.00;;;;;;10544711;28;20036;-61
2021/05/22 15:22:10;;;;;;;3.22;1.95;;;17.40;66.90;;;;;;10557278;28;20441;-59
2021/05/22 15:27:11;;;;;;;4.80;1.73;;;17.40;66.90;;;;;;10524282;28;20428;-61
2021/05/22 15:32:11;;;;;;;2.97;1.60;;;17.40;66.80;;;;;;10542128;28;20518;-60
2021/05/22 15:37:12;;;;;;;2.75;1.70;;;17.40;66.80;;;;;;10541541;28;20024;-61
2021/05/22 15:42:14;;;;;;;2.45;1.40;;;17.40;66.70;;;;;;10541882;28;20036;-61
2021/05/22 15:47:23;;;;;;;3.40;1.30;;;17.40;66.70;;;;;;10549391;28;20404;-61
2021/05/22 16:08:08;;;;;;;3.47;1.00;;;17.30;66.60;;;;;;10562147;28;20075;-61
2021/05/22 16:13:09;;;;;;;3.53;1.20;;;17.30;66.50;;;;;;10554202;28;20028;-61
2021/05/22 16:18:10;;;;;;;2.70;1.30;;;17.30;66.50;;;;;;10548786;28;20406;-61
2021/05/22 16:23:14;;;;;;;2.50;1.45;;;17.30;66.40;;;;;;10546601;28;20028;-61
2021/05/22 16:28:15;;;;;;;2.45;1.25;;;17.40;66.50;;;;;;10556356;28;20038;-61
2021/05/22 16:33:16;;;;;;;1.95;1.40;;;17.30;66.40;;;;;;10521964;28;20472;-61
2021/05/22 16:38:17;;;;;;;2.20;1.25;;;17.30;66.30;;;;;;10539207;28;20051;-61
2021/05/22 16:43:18;;;;;;;3.75;1.30;;;17.30;66.30;;;;;;10539477;28;20491;-61
2021/05/22 16:48:19;;;;;;;3.35;1.35;;;17.30;66.30;;;;;;10564945;28;20527;-61
2021/05/22 16:53:19;;;;;;;2.20;1.33;;;17.30;66.30;;;;;;10521054;28;20048;-60
2021/05/22 16:58:20;;;;;;;2.75;1.60;;;17.30;66.30;;;;;;10520904;28;20024;-61
2021/05/22 17:03:21;;;;;;;2.22;1.38;;;17.30;66.30;;;;;;10539027;28;20036;-61
2021/05/22 17:08:21;;;;;;;2.85;1.50;;;17.30;66.20;;;;;;10552351;28;20071;-60
2021/05/22 17:13:22;;;;;;;3.83;1.50;;;17.30;66.20;;;;;;10553007;28;20548;-61
2021/05/22 17:18:23;;;;;;;4.90;1.73;;;17.30;66.20;;;;;;10548071;28;20028;-61
2021/05/22 17:23:24;;;;;;;3.90;1.42;;;17.30;66.10;;;;;;10543623;28;20070;-61
2021/05/22 17:28:25;;;;;;;3.13;1.60;;;17.30;66.10;;;;;;10520265;28;20028;-62
2021/05/22 17:33:26;;;;;;;1.80;1.23;;;17.30;66.10;;;;;;10538187;28;20032;-61
2021/05/22 17:38:26;;;;;;;4.15;2.08;;;17.30;66.00;;;;;;10537912;28;20491;-61
2021/05/22 17:43:27;;;;;;;3.05;1.45;;;17.20;66.00;;;;;;10554528;28;20058;-61
2021/05/22 17:48:28;;;;;;;2.55;1.92;;;17.20;66.00;;;;;;10571892;28;20402;-62
2021/05/22 17:53:28;;;;;;;2.53;1.38;;;17.30;66.10;;;;;;10527817;28;20370;-61
2021/05/22 17:58:29;;;;;;;1.95;1.30;;;17.20;65.90;;;;;;10545634;28;20039;-61
2021/05/22 18:03:31;;;;;;;3.40;1.58;;;17.20;65.90;;;;;;10545861;28;20035;-61
2021/05/22 18:08:31;;;;;;;2.47;1.83;;;17.20;65.90;;;;;;10565003;28;20433;-61
2021/05/22 18:13:32;;;;;;;2.55;1.33;;;17.20;65.90;;;;;;10544885;28;20063;-60
2021/05/22 18:18:33;;;;;;;2.83;1.50;;;17.20;65.90;;;;;;10557530;28;20421;-54
2021/05/22 18:23:36;;;;;;;3.00;1.33;;;17.20;65.90;;;;;;10548219;28;20066;-56
2021/05/22 18:28:37;;;;;;;3.20;1.35;;;17.20;65.80;;;;;;10544340;28;20031;-55
2021/05/22 18:33:38;;;;;;;4.07;1.60;;;17.20;65.80;;;;;;10556834;28;20035;-56
2021/05/22 18:38:39;;;;;;;2.00;1.50;;;17.20;65.90;;;;;;10569690;28;20034;-56
2021/05/22 18:43:40;;;;;;;2.05;1.20;;;17.20;65.90;;;;;;10545383;28;20039;-54
2021/05/22 18:48:41;;;;;;;3.47;1.40;;;17.20;65.90;;;;;;10543809;28;20050;-55
2021/05/22 18:53:42;;;;;;;2.30;1.90;;;17.20;65.90;;;;;;10559794;28;20067;-56
2021/05/22 18:58:43;;;;;;;1.77;1.35;;;17.20;65.80;;;;;;10546231;28;20028;-55
2021/05/22 19:03:45;;;;;;;1.70;1.42;;;17.10;65.80;;;;;;10570225;28;20062;-56
2021/05/22 19:08:45;;;;;;;2.97;1.50;;;17.10;65.80;;;;;;10543511;28;20027;-55
2021/05/22 19:13:46;;;;;;;1.83;1.20;;;17.20;65.80;;;;;;10566874;28;20395;-54
2021/05/22 19:18:47;;;;;;;1.52;1.20;;;17.10;65.70;;;;;;10561033;28;20073;-55
2021/05/22 19:23:48;;;;;;;2.83;1.45;;;17.10;65.70;;;;;;10543706;28;20055;-55
2021/05/22 19:28:48;;;;;;;2.25;1.60;;;17.10;65.70;;;;;;10523432;28;20065;-56
2021/05/22 19:33:49;;;;;;;2.50;1.42;;;17.10;65.70;;;;;;10541916;28;20111;-56
2021/05/22 19:38:50;;;;;;;1.63;1.13;;;17.10;65.70;;;;;;10555110;28;20071;-55
2021/05/22 19:43:51;;;;;;;2.17;1.75;;;17.10;65.70;;;;;;10578433;28;20032;-55
2021/05/22 19:48:52;;;;;;;3.00;1.20;;;17.10;65.70;;;;;;10564173;28;20052;-56
2021/05/22 19:53:55;;;;;;;2.47;1.42;;;17.10;65.70;;;;;;10541417;28;20039;-56
2021/05/22 19:58:55;;;;;;;1.98;1.30;;;17.10;65.70;;;;;;10540929;28;20580;-56
2021/05/22 20:03:56;;;;;;;2.17;1.40;;;17.10;65.60;;;;;;10540912;28;20129;-56
2021/05/22 20:08:57;;;;;;;2.40;1.40;;;17.10;65.60;;;;;;10505263;28;20434;-56
2021/05/22 20:13:57;;;;;;;1.73;1.17;;;17.10;65.60;;;;;;10565768;28;20122;-56
2021/05/22 20:18:58;;;;;;;1.67;1.40;;;17.00;65.60;;;;;;10556089;28;20070;-56
2021/05/22 20:24:02;;;;;;;2.20;1.30;;;17.00;65.60;;;;;;10555089;28;20058;-56
2021/05/22 20:29:03;;;;;;;1.60;1.13;;;17.00;65.60;;;;;;10546370;28;20039;-56
2021/05/22 20:34:04;;;;;;;1.52;1.05;;;17.00;65.60;;;;;;10539986;28;20032;-56
2021/05/22 20:39:10;;;;;;;3.13;1.60;;;17.00;65.60;;;;;;10565197;28;20472;-56
2021/05/22 20:44:11;;;;;;;1.48;1.27;;;17.10;65.60;;;;;;10546954;28;20388;-55
2021/05/22 20:49:12;;;;;;;2.42;1.40;;;17.00;65.60;;;;;;10562650;28;20158;-55
2021/05/22 20:54:13;;;;;;;1.55;1.33;;;17.10;65.60;;;;;;10539250;28;20483;-56
2021/05/22 20:59:14;;;;;;;2.30;1.20;;;17.00;65.60;;;;;;10521417;28;20103;-56
2021/05/22 21:04:14;;;;;;;2.00;1.30;;;17.00;65.60;;;;;;10538882;28;20101;-56
2021/05/22 21:09:15;;;;;;;1.80;1.30;;;17.00;65.60;;;;;;10558458;28;20058;-55
2021/05/22 21:14:17;;;;;;;2.47;1.38;;;17.00;65.50;;;;;;10547565;28;20082;-55
2021/05/22 21:19:18;;;;;;;1.88;1.40;;;17.00;65.50;;;;;;10562633;28;20024;-55
2021/05/22 21:24:18;;;;;;;3.95;1.35;;;17.00;65.60;;;;;;10547207;28;20032;-56
2021/05/22 21:29:19;;;;;;;2.63;1.50;;;17.00;65.60;;;;;;10546918;28;20475;-56
2021/05/22 21:34:20;;;;;;;1.42;1.00;;;17.00;65.60;;;;;;10546983;28;20056;-55
2021/05/22 21:39:20;;;;;;;2.80;1.20;;;17.00;65.50;;;;;;10528244;28;20056;-56
2021/05/22 21:44:21;;;;;;;1.08;0.90;;;17.00;65.50;;;;;;10546752;28;20032;-56
2021/05/22 21:49:22;;;;;;;1.90;1.40;;;16.90;65.50;;;;;;10569015;28;20064;-56
2021/05/22 21:54:23;;;;;;;2.13;1.40;;;17.00;65.50;;;;;;10546126;28;20134;-56
2021/05/22 21:59:23;;;;;;;4.15;1.30;;;17.00;65.50;;;;;;10545602;28;20137;-55
2021/05/22 22:04:24;;;;;;;1.73;1.40;;;17.00;65.50;;;;;;10561179;28;20039;-55
2021/05/22 22:09:25;;;;;;;2.08;1.35;;;16.90;65.40;;;;;;10563161;28;20075;-54
2021/05/22 22:14:25;;;;;;;2.15;1.30;;;16.90;65.40;;;;;;10571423;28;20113;-56
2021/05/22 22:19:26;;;;;;;2.30;1.40;;;16.90;65.50;;;;;;10528133;28;20043;-54
2021/05/22 22:24:27;;;;;;;2.28;1.35;;;16.90;65.40;;;;;;10544938;28;20089;-53
2021/05/22 22:29:28;;;;;;;1.55;1.10;;;16.90;65.40;;;;;;10570175;28;20039;-54
2021/05/22 22:34:29;;;;;;;1.33;1.10;;;16.90;65.40;;;;;;10548450;28;20499;-55
2021/05/22 22:39:29;;;;;;;2.42;1.10;;;16.90;65.40;;;;;;10544562;28;20031;-56
2021/05/22 22:44:30;;;;;;;2.03;1.40;;;16.90;65.40;;;;;;10526363;28;20102;-56
2021/05/22 22:49:31;;;;;;;3.28;1.60;;;16.90;65.40;;;;;;10545034;28;20491;-56
2021/05/22 22:54:31;;;;;;;2.05;1.45;;;16.90;65.40;;;;;;10527463;28;20123;-55
2021/05/22 22:59:32;;;;;;;2.30;1.08;;;16.90;65.40;;;;;;10525253;28;20056;-55
2021/05/22 23:04:33;;;;;;;1.95;1.30;;;16.90;65.40;;;;;;10543496;28;20071;-54
2021/05/22 23:09:34;;;;;;;2.17;1.35;;;16.90;65.40;;;;;;10542901;28;20032;-56
2021/05/22 23:14:35;;;;;;;1.30;1.05;;;16.90;65.30;;;;;;10569208;28;20115;-54
2021/05/22 23:19:36;;;;;;;1.42;1.30;;;16.90;66.00;;;;;;10563035;28;20038;-55
2021/05/22 23:24:36;;;;;;;2.72;1.25;;;16.90;65.40;;;;;;10560854;28;20063;-55
2021/05/22 23:29:37;;;;;;;1.98;1.50;;;16.80;65.30;;;;;;10548769;28;20424;-55
2021/05/22 23:34:38;;;;;;;1.83;1.45;;;16.80;65.30;;;;;;10523970;28;20131;-56
2021/05/22 23:39:39;;;;;;;2.17;1.23;;;16.90;65.40;;;;;;10541229;28;20024;-55
2021/05/22 23:44:40;;;;;;;1.67;1.30;;;16.90;65.30;;;;;;10523788;28;20063;-56
2021/05/22 23:49:50;;;;;;;2.13;1.30;;;16.80;65.30;;;;;;10541372;28;20062;-54
2021/05/22 23:54:51;;;;;;;2.25;1.15;;;16.80;65.20;;;;;;10541468;28;20102;-56
2021/05/22 23:59:52;;;;;;;1.77;1.38;;;16.80;65.30;;;;;;10522639;28;20024;-55
